createdAt,value
2023-01-27T00:03:56.848Z,-1.9
2023-01-27T00:05:53.942Z,-1.9
2023-01-27T00:09:56.711Z,-1.9
2023-01-27T00:11:51.942Z,-1.8
2023-01-27T00:13:56.560Z,-1.9
2023-01-27T00:15:56.152Z,-2
2023-01-27T00:17:52.265Z,-1.9
2023-01-27T00:19:56.909Z,-1.9
2023-01-27T00:21:51.477Z,-1.8
2023-01-27T00:23:55.464Z,-1.8
2023-01-27T00:25:55.840Z,-1.8
2023-01-27T00:29:50.750Z,-1.9
2023-01-27T00:31:56.659Z,-1.9
2023-01-27T00:33:56.582Z,-1.9
2023-01-27T00:35:53.422Z,-1.8
2023-01-27T00:37:56.947Z,-1.8
2023-01-27T00:39:53.289Z,-1.9
2023-01-27T00:41:53.968Z,-1.9
2023-01-27T00:47:55.619Z,-1.9
2023-01-27T00:49:57.051Z,-1.9
2023-01-27T00:51:56.828Z,-1.9
2023-01-27T00:53:54.058Z,-1.9
2023-01-27T00:55:56.732Z,-1.9
2023-01-27T00:57:54.286Z,-2
2023-01-27T00:59:52.213Z,-2
2023-01-27T01:03:56.734Z,-1.8
2023-01-27T01:05:55.539Z,-1.9
2023-01-27T01:07:56.654Z,-1.8
2023-01-27T01:12:00.758Z,-1.8
2023-01-27T01:13:51.278Z,-1.9
2023-01-27T01:17:54.552Z,-1.9
2023-01-27T01:21:57.329Z,-1.9
2023-01-27T01:23:57.176Z,-1.8
2023-01-27T01:25:56.431Z,-1.9
2023-01-27T01:27:56.748Z,-2
2023-01-27T01:29:52.310Z,-2
2023-01-27T01:31:56.244Z,-1.9
2023-01-27T01:33:56.132Z,-1.9
2023-01-27T01:35:53.184Z,-1.9
2023-01-27T01:37:56.888Z,-1.8
2023-01-27T01:41:57.298Z,-1.7
2023-01-27T01:43:56.487Z,-1.8
2023-01-27T01:47:50.737Z,-1.8
2023-01-27T01:49:57.272Z,-1.8
2023-01-27T01:51:56.855Z,-1.8
2023-01-27T01:53:50.662Z,-1.8
2023-01-27T01:57:57.026Z,-1.8
2023-01-27T01:59:51.977Z,-1.8
2023-01-27T02:03:56.791Z,-1.9
2023-01-27T02:05:51.474Z,-1.9
2023-01-27T02:07:55.366Z,-1.9
2023-01-27T02:09:57.061Z,-1.9
2023-01-27T02:11:56.312Z,-1.9
2023-01-27T02:13:56.901Z,-1.8
2023-01-27T02:15:54.295Z,-1.8
2023-01-27T02:17:53.753Z,-1.9
2023-01-27T02:19:57.087Z,-1.8
2023-01-27T02:23:56.335Z,-1.9
2023-01-27T02:27:53.097Z,-1.8
2023-01-27T02:29:50.676Z,-1.9
2023-01-27T02:31:56.922Z,-1.9
2023-01-27T02:33:55.581Z,-1.9
2023-01-27T02:35:51.829Z,-1.7
2023-01-27T02:39:57.023Z,-1.8
2023-01-27T02:41:57.059Z,-1.7
2023-01-27T02:43:55.800Z,-1.7
2023-01-27T02:45:56.972Z,-1.8
2023-01-27T02:47:52.304Z,-1.8
2023-01-27T02:49:56.980Z,-1.8
2023-01-27T02:51:55.902Z,-1.8
2023-01-27T02:53:52.457Z,-1.7
2023-01-27T02:55:57.007Z,-1.8
2023-01-27T02:59:51.585Z,-1.8
2023-01-27T03:03:57.097Z,-1.7
2023-01-27T03:05:50.656Z,-1.8
2023-01-27T03:07:55.011Z,-1.9
2023-01-27T03:11:53.358Z,-1.9
2023-01-27T03:15:56.866Z,-1.8
2023-01-27T03:17:55.653Z,-1.9
2023-01-27T03:19:56.946Z,-1.9
2023-01-27T03:21:54.535Z,-1.9
2023-01-27T03:23:52.565Z,-1.9
2023-01-27T03:25:56.845Z,-1.9
2023-01-27T03:27:56.733Z,-1.9
2023-01-27T03:29:50.835Z,-1.8
2023-01-27T03:31:56.888Z,-1.8
2023-01-27T03:35:52.134Z,-1.9
2023-01-27T03:39:56.978Z,-1.9
2023-01-27T03:41:54.211Z,-1.8
2023-01-27T03:43:56.936Z,-1.8
2023-01-27T03:45:56.976Z,-1.8
2023-01-27T03:47:54.369Z,-1.9
2023-01-27T03:49:56.856Z,-1.9
2023-01-27T03:53:52.474Z,-1.9
2023-01-27T03:55:54.775Z,-1.9
2023-01-27T03:57:56.729Z,-2
2023-01-27T03:59:50.699Z,-1.9
2023-01-27T04:01:57.351Z,-1.8
2023-01-27T04:05:54.417Z,-1.9
2023-01-27T04:09:55.376Z,-1.9
2023-01-27T04:11:56.856Z,-1.9
2023-01-27T04:15:51.286Z,-1.9
2023-01-27T04:17:55.688Z,-1.9
2023-01-27T04:23:50.721Z,-1.9
2023-01-27T04:27:57.071Z,-1.9
2023-01-27T04:29:50.466Z,-1.9
2023-01-27T04:31:57.107Z,-1.9
2023-01-27T04:35:55.946Z,-1.8
2023-01-27T04:41:50.459Z,-1.8
2023-01-27T04:43:56.931Z,-1.8
2023-01-27T04:45:56.994Z,-1.8
2023-01-27T04:47:52.563Z,-1.8
2023-01-27T04:49:52.825Z,-1.8
2023-01-27T04:53:50.803Z,-1.8
2023-01-27T04:55:57.055Z,-1.8
2023-01-27T04:59:51.885Z,-1.8
2023-01-27T05:03:56.816Z,-1.9
2023-01-27T05:05:57.455Z,-1.9
2023-01-27T05:09:57.378Z,-1.9
2023-01-27T05:11:57.652Z,-1.9
2023-01-27T05:13:55.300Z,-1.9
2023-01-27T05:15:54.269Z,-1.9
2023-01-27T05:19:52.766Z,-1.8
2023-01-27T05:21:57.435Z,-1.8
2023-01-27T05:23:50.647Z,-1.9
2023-01-27T05:25:57.189Z,-1.9
2023-01-27T05:27:57.032Z,-1.9
2023-01-27T05:29:51.077Z,-1.9
2023-01-27T05:35:50.766Z,-1.9
2023-01-27T05:37:54.299Z,-1.9
2023-01-27T05:41:50.569Z,-1.9
2023-01-27T05:43:55.952Z,-1.8
2023-01-27T05:45:53.794Z,-1.9
2023-01-27T05:47:56.799Z,-1.8
2023-01-27T05:49:56.562Z,-1.8
2023-01-27T05:53:51.616Z,-1.8
2023-01-27T05:57:56.842Z,-1.8
2023-01-27T05:59:50.842Z,-1.9
2023-01-27T06:01:54.111Z,-1.9
2023-01-27T06:03:56.294Z,-1.7
2023-01-27T06:05:50.854Z,-1.7
2023-01-27T06:07:57.715Z,-1.7
2023-01-27T06:09:57.070Z,-1.7
2023-01-27T06:11:50.754Z,-1.7
2023-01-27T06:13:56.945Z,-1.8
2023-01-27T06:15:57.184Z,-1.8
2023-01-27T06:17:53.971Z,-1.8
2023-01-27T06:19:57.212Z,-1.8
2023-01-27T06:21:56.237Z,-1.7
2023-01-27T06:23:50.618Z,-1.7
2023-01-27T06:25:56.296Z,-1.8
2023-01-27T06:27:57.174Z,-1.8
2023-01-27T06:29:54.333Z,-1.7
2023-01-27T06:31:57.142Z,-1.7
2023-01-27T06:35:51.020Z,-1.7
2023-01-27T06:39:56.339Z,-1.7
2023-01-27T06:41:50.929Z,-1.7
2023-01-27T06:47:51.119Z,-1.9
2023-01-27T06:49:57.166Z,-1.9
2023-01-27T06:53:55.854Z,-1.9
2023-01-27T06:55:55.948Z,-1.9
2023-01-27T06:57:54.049Z,-1.8
2023-01-27T06:59:50.861Z,-1.8
2023-01-27T07:01:57.272Z,-1.9
2023-01-27T07:05:57.074Z,-1.8
2023-01-27T07:07:56.351Z,-1.8
2023-01-27T07:09:52.997Z,-1.7
2023-01-27T07:11:50.616Z,-1.7
2023-01-27T07:13:55.468Z,-1.8
2023-01-27T07:15:53.574Z,-1.8
2023-01-27T07:17:50.622Z,-1.8
2023-01-27T07:19:54.505Z,-1.8
2023-01-27T07:21:54.414Z,-1.7
2023-01-27T07:23:54.656Z,-1.7
2023-01-27T07:27:54.236Z,-1.7
2023-01-27T07:29:50.519Z,-1.7
2023-01-27T07:31:51.256Z,-1.7
2023-01-27T07:33:52.563Z,-1.8
2023-01-27T07:35:50.957Z,-1.7
2023-01-27T07:37:57.760Z,-1.6
2023-01-27T07:39:52.760Z,-1.6
2023-01-27T07:41:52.310Z,-1.6
2023-01-27T07:43:55.279Z,-1.7
2023-01-27T07:48:00.697Z,-1.6
2023-01-27T07:49:54.447Z,-1.6
2023-01-27T07:51:57.326Z,-1.6
2023-01-27T07:53:56.069Z,-1.6
2023-01-27T07:55:57.450Z,-1.6
2023-01-27T07:57:50.948Z,-1.6
2023-01-27T07:59:54.593Z,-1.6
2023-01-27T08:01:53.507Z,-1.6
2023-01-27T08:03:51.833Z,-1.6
2023-01-27T08:07:58.910Z,-1.7
2023-01-27T08:09:56.674Z,-1.6
2023-01-27T08:11:54.348Z,-1.6
2023-01-27T08:13:57.210Z,-1.6
2023-01-27T08:17:53.814Z,-1.5
2023-01-27T08:19:52.910Z,-1.5
2023-01-27T08:21:54.209Z,-1.5
2023-01-27T08:23:57.198Z,-1.4
2023-01-27T08:27:50.863Z,-1.5
2023-01-27T08:29:56.216Z,-1.5
2023-01-27T08:31:57.376Z,-1.6
2023-01-27T08:33:54.313Z,-1.6
2023-01-27T08:35:55.947Z,-1.5
2023-01-27T08:37:55.901Z,-1.6
2023-01-27T08:39:50.975Z,-1.5
2023-01-27T08:41:54.869Z,-1.6
2023-01-27T08:45:57.549Z,-1.7
2023-01-27T08:47:57.224Z,-1.6
2023-01-27T08:49:56.328Z,-1.6
2023-01-27T08:51:57.093Z,-1.6
2023-01-27T08:53:54.013Z,-1.5
2023-01-27T08:55:55.554Z,-1.5
2023-01-27T08:57:56.348Z,-1.4
2023-01-27T08:59:50.722Z,-1.6
2023-01-27T09:01:57.497Z,-1.5
2023-01-27T09:03:56.750Z,-1.5
2023-01-27T09:05:56.862Z,-1.4
2023-01-27T09:07:50.837Z,-1.4
2023-01-27T09:10:01.134Z,-1.5
2023-01-27T09:11:50.625Z,-1.4
2023-01-27T09:13:57.269Z,-1.3
2023-01-27T09:15:54.426Z,-1.3
2023-01-27T09:17:51.152Z,-1.4
2023-01-27T09:19:57.076Z,-1.4
2023-01-27T09:21:51.875Z,-1.4
2023-01-27T09:23:51.662Z,-1.5
2023-01-27T09:25:57.612Z,-1.3
2023-01-27T09:27:50.986Z,-1.3
2023-01-27T09:29:56.018Z,-1.3
2023-01-27T09:31:56.371Z,-1.3
2023-01-27T09:33:55.576Z,-1.3
2023-01-27T09:35:54.217Z,-1.2
2023-01-27T09:39:53.228Z,-1.3
2023-01-27T09:41:55.781Z,-1.2
2023-01-27T09:43:54.330Z,-1.1
2023-01-27T09:45:54.821Z,-1.1
2023-01-27T09:47:54.895Z,-1.1
2023-01-27T09:49:50.949Z,-1.2
2023-01-27T09:51:56.424Z,-1.1
2023-01-27T09:53:57.904Z,-1.1
2023-01-27T09:55:57.125Z,-1.1
2023-01-27T09:57:56.500Z,-1.1
2023-01-27T09:59:54.439Z,-1
2023-01-27T10:03:55.667Z,-1
2023-01-27T10:05:56.646Z,-1.1
2023-01-27T10:07:52.399Z,-1.2
2023-01-27T10:09:50.980Z,-1.2
2023-01-27T10:11:52.757Z,-1.2
2023-01-27T10:13:54.319Z,-1.3
2023-01-27T10:17:51.073Z,-1.3
2023-01-27T10:19:56.377Z,-1.3
2023-01-27T10:21:59.571Z,-1.2
2023-01-27T10:23:50.675Z,-1.2
2023-01-27T10:25:56.155Z,-1.1
2023-01-27T10:27:57.351Z,-1.1
2023-01-27T10:29:54.351Z,-1
2023-01-27T10:31:56.441Z,-0.9
2023-01-27T10:35:50.680Z,-0.9
2023-01-27T10:37:54.364Z,-0.8
2023-01-27T10:39:56.871Z,-0.8
2023-01-27T10:41:56.567Z,-0.8
2023-01-27T10:43:52.603Z,-0.8
2023-01-27T10:45:50.945Z,-0.8
2023-01-27T10:47:50.693Z,-0.8
2023-01-27T10:49:53.643Z,-0.9
2023-01-27T10:51:51.474Z,-0.8
2023-01-27T10:53:56.635Z,-0.9
2023-01-27T10:55:57.408Z,-0.8
2023-01-27T10:57:50.935Z,-0.8
2023-01-27T11:00:11.164Z,-0.7
2023-01-27T11:03:57.249Z,-0.7
2023-01-27T11:05:50.696Z,-0.6
2023-01-27T11:07:52.830Z,-0.7
2023-01-27T11:09:56.830Z,-0.7
2023-01-27T11:11:57.077Z,-0.7
2023-01-27T11:13:51.085Z,-0.7
2023-01-27T11:15:57.162Z,-0.8
2023-01-27T11:17:56.127Z,-0.8
2023-01-27T11:19:51.414Z,-0.8
2023-01-27T11:22:05.575Z,-0.6
2023-01-27T11:23:54.592Z,-0.7
2023-01-27T11:27:53.568Z,-0.8
2023-01-27T11:29:52.307Z,-0.6
2023-01-27T11:31:54.950Z,-0.6
2023-01-27T11:35:51.201Z,-0.6
2023-01-27T11:38:06.442Z,-0.7
2023-01-27T11:39:56.801Z,-0.6
2023-01-27T11:41:53.869Z,-0.8
2023-01-27T11:43:53.925Z,-0.8
2023-01-27T11:45:57.499Z,-0.8
2023-01-27T11:47:54.052Z,-0.7
2023-01-27T11:49:51.159Z,-0.7
2023-01-27T11:51:57.376Z,-0.7
2023-01-27T11:53:56.970Z,-0.7
2023-01-27T11:55:54.428Z,-0.7
2023-01-27T11:57:51.940Z,-0.7
2023-01-27T11:59:50.739Z,-0.7
2023-01-27T12:01:57.803Z,-0.7
2023-01-27T12:03:51.153Z,-0.6
2023-01-27T12:05:55.914Z,-0.6
2023-01-27T12:07:52.251Z,-0.4
2023-01-27T12:09:57.262Z,-0.3
2023-01-27T12:11:50.719Z,-0.4
2023-01-27T12:15:54.128Z,-0.4
2023-01-27T12:17:55.704Z,-0.3
2023-01-27T12:19:53.196Z,-0.3
2023-01-27T12:21:52.192Z,-0.5
2023-01-27T12:23:55.569Z,-0.5
2023-01-27T12:25:53.184Z,-0.5
2023-01-27T12:27:55.960Z,-0.5
2023-01-27T12:29:54.405Z,-0.2
2023-01-27T12:31:51.153Z,-0.1
2023-01-27T12:33:58.105Z,0
2023-01-27T12:35:50.701Z,0
2023-01-27T12:37:54.612Z,0.1
2023-01-27T12:39:51.202Z,0.1
2023-01-27T12:41:57.820Z,0.1
2023-01-27T12:43:54.275Z,0.3
2023-01-27T12:45:57.021Z,0.1
2023-01-27T12:47:54.478Z,0
2023-01-27T12:49:53.355Z,0
2023-01-27T12:53:50.738Z,0.1
2023-01-27T12:55:51.015Z,0.1
2023-01-27T12:58:00.795Z,0.2
2023-01-27T12:59:51.009Z,0.2
2023-01-27T13:01:55.202Z,0.1
2023-01-27T13:03:56.272Z,0.1
2023-01-27T13:05:50.785Z,0.1
2023-01-27T13:07:56.747Z,0
2023-01-27T13:09:55.681Z,-0.1
2023-01-27T13:11:50.740Z,0
2023-01-27T13:13:56.942Z,0
2023-01-27T13:15:55.653Z,0.1
2023-01-27T13:17:53.428Z,0.1
2023-01-27T13:19:54.324Z,0.1
2023-01-27T13:21:51.016Z,0.1
2023-01-27T13:23:54.719Z,-0.1
2023-01-27T13:25:57.292Z,-0.2
2023-01-27T13:27:53.269Z,-0.2
2023-01-27T13:29:55.648Z,-0.3
2023-01-27T13:31:56.489Z,-0.2
2023-01-27T13:33:51.248Z,-0.3
2023-01-27T13:35:54.223Z,-0.2
2023-01-27T13:37:54.220Z,-0.3
2023-01-27T13:39:57.705Z,-0.3
2023-01-27T13:41:56.946Z,-0.4
2023-01-27T13:43:53.588Z,-0.5
2023-01-27T13:45:51.727Z,-0.5
2023-01-27T13:47:52.150Z,-0.4
2023-01-27T13:49:56.854Z,-0.4
2023-01-27T13:53:57.048Z,-0.3
2023-01-27T13:55:51.222Z,-0.3
2023-01-27T13:57:54.785Z,-0.3
2023-01-27T14:01:56.607Z,-0.4
2023-01-27T14:05:57.027Z,-0.4
2023-01-27T14:07:51.215Z,-0.3
2023-01-27T14:09:54.812Z,-0.2
2023-01-27T14:11:56.921Z,-0.2
2023-01-27T14:13:57.330Z,-0.2
2023-01-27T14:17:53.820Z,-0.4
2023-01-27T14:19:15.179Z,-0.4
2023-01-27T14:21:11.235Z,-0.5
2023-01-27T14:23:13.380Z,-0.5
2023-01-27T14:25:11.251Z,-0.5
2023-01-27T14:27:10.851Z,-0.5
2023-01-27T14:31:15.056Z,-0.4
2023-01-27T14:33:11.461Z,-0.5
2023-01-27T14:35:10.111Z,-0.5
2023-01-27T14:37:08.767Z,-0.5
2023-01-27T14:39:12.629Z,-0.5
2023-01-27T14:41:13.642Z,-0.6
2023-01-27T14:43:10.576Z,-0.6
2023-01-27T14:45:10.163Z,-0.7
2023-01-27T14:47:14.016Z,-0.6
2023-01-27T14:49:13.044Z,-0.7
2023-01-27T14:51:10.622Z,-0.8
2023-01-27T14:53:13.783Z,-0.8
2023-01-27T14:55:12.153Z,-0.7
2023-01-27T14:57:14.762Z,-0.7
2023-01-27T14:59:14.268Z,-0.8
2023-01-27T15:01:14.255Z,-0.9
2023-01-27T15:03:13.905Z,-0.8
2023-01-27T15:05:15.014Z,-0.9
2023-01-27T15:07:10.393Z,-0.9
2023-01-27T15:09:14.637Z,-0.9
2023-01-27T15:11:10.244Z,-0.8
2023-01-27T15:13:10.181Z,-0.8
2023-01-27T15:15:14.719Z,-0.9
2023-01-27T15:17:13.953Z,-0.9
2023-01-27T15:19:08.748Z,-1
2023-01-27T15:21:17.693Z,-0.9
2023-01-27T15:23:12.858Z,-1
2023-01-27T15:27:13.916Z,-1
2023-01-27T15:29:10.568Z,-0.9
2023-01-27T15:31:14.241Z,-1
2023-01-27T15:33:10.196Z,-0.9
2023-01-27T15:35:12.862Z,-0.9
2023-01-27T15:37:10.747Z,-1
2023-01-27T15:39:11.395Z,-1
2023-01-27T15:41:14.607Z,-1
2023-01-27T15:43:13.006Z,-1
2023-01-27T15:45:12.462Z,-1
2023-01-27T15:47:12.156Z,-1
2023-01-27T15:49:08.836Z,-1
2023-01-27T15:51:11.407Z,-1
2023-01-27T15:53:09.995Z,-1.1
2023-01-27T15:55:15.601Z,-1.1
2023-01-27T15:57:11.076Z,-1.1
2023-01-27T15:59:10.602Z,-1.1
2023-01-27T16:01:13.582Z,-1
2023-01-27T16:03:14.404Z,-1
2023-01-27T16:05:10.169Z,-1.1
2023-01-27T16:07:14.340Z,-1.1
2023-01-27T16:09:12.608Z,-1.1
2023-01-27T16:11:13.619Z,-1.1
2023-01-27T16:13:11.576Z,-1.1
2023-01-27T16:15:14.780Z,-1.1
2023-01-27T16:17:13.850Z,-1.1
2023-01-27T16:19:10.646Z,-1.1
2023-01-27T16:21:10.428Z,-1.1
2023-01-27T16:23:10.160Z,-1.2
2023-01-27T16:25:15.593Z,-1.2
2023-01-27T16:27:10.157Z,-1.2
2023-01-27T16:29:10.226Z,-1.2
2023-01-27T16:31:15.089Z,-1.3
2023-01-27T16:33:15.536Z,-1.2
2023-01-27T16:35:09.300Z,-1.3
2023-01-27T16:37:14.682Z,-1.3
2023-01-27T16:39:13.268Z,-1.3
2023-01-27T16:41:11.503Z,-1.3
2023-01-27T16:43:11.587Z,-1.3
2023-01-27T16:45:11.235Z,-1.3
2023-01-27T16:47:16.378Z,-1.3
2023-01-27T16:49:10.490Z,-1.4
2023-01-27T16:51:08.749Z,-1.3
2023-01-27T16:53:12.444Z,-1.3
2023-01-27T16:55:09.821Z,-1.3
2023-01-27T16:57:14.335Z,-1.3
2023-01-27T16:59:12.720Z,-1.4
2023-01-27T17:01:13.234Z,-1.4
2023-01-27T17:03:09.155Z,-1.4
2023-01-27T17:05:10.789Z,-1.3
2023-01-27T17:07:13.408Z,-1.4
2023-01-27T17:09:11.133Z,-1.4
2023-01-27T17:11:12.712Z,-1.4
2023-01-27T17:13:10.230Z,-1.4
2023-01-27T17:15:14.178Z,-1.4
2023-01-27T17:17:12.162Z,-1.4
2023-01-27T17:19:12.532Z,-1.4
2023-01-27T17:21:11.691Z,-1.4
2023-01-27T17:23:13.821Z,-1.3
2023-01-27T17:25:10.437Z,-1.4
2023-01-27T17:27:14.272Z,-1.4
2023-01-27T17:29:10.318Z,-1.4
2023-01-27T17:31:11.334Z,-1.4
2023-01-27T17:33:14.686Z,-1.4
2023-01-27T17:35:10.576Z,-1.4
2023-01-27T17:37:12.081Z,-1.4
2023-01-27T17:39:12.894Z,-1.4
2023-01-27T17:41:14.519Z,-1.4
2023-01-27T17:43:13.946Z,-1.4
2023-01-27T17:45:15.802Z,-1.4
2023-01-27T17:47:10.164Z,-1.4
2023-01-27T17:49:13.404Z,-1.5
2023-01-27T17:51:10.742Z,-1.4
2023-01-27T17:53:11.972Z,-1.4
2023-01-27T17:57:12.017Z,-1.4
2023-01-27T17:59:09.198Z,-1.5
2023-01-27T18:01:10.359Z,-1.4
2023-01-27T18:03:15.567Z,-1.5
2023-01-27T18:05:13.047Z,-1.4
2023-01-27T18:09:10.148Z,-1.5
2023-01-27T18:11:08.811Z,-1.5
2023-01-27T18:13:12.900Z,-1.4
2023-01-27T18:15:10.242Z,-1.4
2023-01-27T18:17:12.711Z,-1.4
2023-01-27T18:19:10.374Z,-1.5
2023-01-27T18:21:12.268Z,-1.4
2023-01-27T18:23:09.497Z,-1.4
2023-01-27T18:25:13.150Z,-1.4
2023-01-27T18:27:12.523Z,-1.5
2023-01-27T18:29:14.437Z,-1.4
2023-01-27T18:31:09.237Z,-1.5
2023-01-27T18:33:11.988Z,-1.4
2023-01-27T18:37:32.022Z,-1.5
2023-01-27T18:39:24.400Z,-1.5
2023-01-27T18:41:18.715Z,-1.6
2023-01-27T18:43:20.577Z,-1.6
2023-01-27T18:45:24.205Z,-1.5
2023-01-27T18:47:23.663Z,-1.5
2023-01-27T18:49:22.911Z,-1.5
2023-01-27T18:51:28.926Z,-1.4
2023-01-27T18:53:20.949Z,-1.5
2023-01-27T18:55:26.838Z,-1.5
2023-01-27T18:57:24.029Z,-1.5
2023-01-27T18:59:19.534Z,-1.5
2023-01-27T19:01:21.864Z,-1.6
2023-01-27T19:05:18.648Z,-1.5
2023-01-27T19:07:28.142Z,-1.5
2023-01-27T19:09:21.464Z,-1.5
2023-01-27T19:11:24.167Z,-1.4
2023-01-27T19:13:25.823Z,-1.4
2023-01-27T19:15:26.550Z,-1.4
2023-01-27T19:17:22.389Z,-1.4
2023-01-27T19:19:22.266Z,-1.4
2023-01-27T19:21:25.025Z,-1.5
2023-01-27T19:23:21.581Z,-1.4
2023-01-27T19:25:26.453Z,-1.5
2023-01-27T19:27:24.593Z,-1.4
2023-01-27T19:29:23.288Z,-1.4
2023-01-27T19:31:18.758Z,-1.4
2023-01-27T19:33:21.776Z,-1.4
2023-01-27T19:35:24.218Z,-1.4
2023-01-27T19:37:26.810Z,-1.5
2023-01-27T19:39:27.757Z,-1.4
2023-01-27T19:41:21.286Z,-1.5
2023-01-27T19:43:24.115Z,-1.5
2023-01-27T19:45:20.506Z,-1.4
2023-01-27T19:47:19.947Z,-1.4
2023-01-27T19:49:25.594Z,-1.4
2023-01-27T19:51:18.647Z,-1.5
2023-01-27T19:53:20.483Z,-1.5
2023-01-27T19:55:23.295Z,-1.4
2023-01-27T19:57:20.132Z,-1.5
2023-01-27T19:59:22.191Z,-1.5
2023-01-27T20:01:22.355Z,-1.5
2023-01-27T20:03:21.933Z,-1.5
2023-01-27T20:05:26.591Z,-1.5
2023-01-27T20:07:21.539Z,-1.6
2023-01-27T20:09:22.720Z,-1.6
2023-01-27T20:11:20.527Z,-1.5
2023-01-27T20:13:25.335Z,-1.5
2023-01-27T20:15:22.426Z,-1.6
2023-01-27T20:17:21.546Z,-1.5
2023-01-27T20:19:19.921Z,-1.5
2023-01-27T20:21:24.194Z,-1.5
2023-01-27T20:23:26.234Z,-1.5
2023-01-27T20:25:22.411Z,-1.5
2023-01-27T20:27:26.757Z,-1.5
2023-01-27T20:29:20.169Z,-1.5
2023-01-27T20:31:25.167Z,-1.5
2023-01-27T20:33:22.320Z,-1.6
2023-01-27T20:35:20.450Z,-1.6
2023-01-27T20:37:26.575Z,-1.6
2023-01-27T20:39:25.732Z,-1.6
2023-01-27T20:41:23.774Z,-1.5
2023-01-27T20:43:34.624Z,-1.5
2023-01-27T20:45:18.752Z,-1.6
2023-01-27T20:47:21.894Z,-1.6
2023-01-27T20:49:21.849Z,-1.6
2023-01-27T20:51:26.545Z,-1.6
2023-01-27T20:53:18.728Z,-1.5
2023-01-27T20:55:18.729Z,-1.5
2023-01-27T20:57:18.741Z,-1.6
2023-01-27T20:59:21.776Z,-1.5
2023-01-27T21:01:19.997Z,-1.5
2023-01-27T21:03:28.458Z,-1.5
2023-01-27T21:05:19.930Z,-1.6
2023-01-27T21:09:18.753Z,-1.6
2023-01-27T21:11:21.525Z,-1.6
2023-01-27T21:13:22.223Z,-1.6
2023-01-27T21:15:20.397Z,-1.6
2023-01-27T21:17:27.108Z,-1.6
2023-01-27T21:19:25.043Z,-1.6
2023-01-27T21:21:18.758Z,-1.6
2023-01-27T21:23:24.067Z,-1.6
2023-01-27T21:25:22.894Z,-1.6
2023-01-27T21:27:22.239Z,-1.6
2023-01-27T21:29:18.614Z,-1.5
2023-01-27T21:31:28.699Z,-1.6
2023-01-27T21:33:21.920Z,-1.6
2023-01-27T21:35:21.566Z,-1.6
2023-01-27T21:37:24.490Z,-1.6
2023-01-27T21:39:18.730Z,-1.5
2023-01-27T21:41:26.989Z,-1.6
2023-01-27T21:43:21.986Z,-1.6
2023-01-27T21:45:20.496Z,-1.6
2023-01-27T21:47:18.755Z,-1.6
2023-01-27T21:49:22.796Z,-1.6
2023-01-27T21:51:18.626Z,-1.6
2023-01-27T21:55:22.677Z,-1.6
2023-01-27T21:57:26.096Z,-1.5
2023-01-27T21:59:27.822Z,-1.5
2023-01-27T22:01:20.158Z,-1.6
2023-01-27T22:03:18.741Z,-1.6
2023-01-27T22:05:21.778Z,-1.6
2023-01-27T22:07:20.593Z,-1.6
2023-01-27T22:09:18.973Z,-1.6
2023-01-27T22:11:18.769Z,-1.6
2023-01-27T22:13:23.730Z,-1.7
2023-01-27T22:15:25.806Z,-1.6
2023-01-27T22:17:21.205Z,-1.6
2023-01-27T22:19:25.876Z,-1.6
2023-01-27T22:21:18.687Z,-1.6
2023-01-27T22:23:20.539Z,-1.6
2023-01-27T22:27:21.716Z,-1.6
2023-01-27T22:29:19.636Z,-1.6
2023-01-27T22:31:19.931Z,-1.6
2023-01-27T22:33:19.141Z,-1.6
2023-01-27T22:35:24.587Z,-1.6
2023-01-27T22:37:22.897Z,-1.6
2023-01-27T22:39:21.524Z,-1.6
2023-01-27T22:41:23.699Z,-1.6
2023-01-27T22:43:20.008Z,-1.6
2023-01-27T22:45:22.466Z,-1.7
2023-01-27T22:47:21.539Z,-1.6
2023-01-27T22:49:26.221Z,-1.6
2023-01-27T22:53:18.763Z,-1.7
2023-01-27T22:55:18.669Z,-1.7
2023-01-27T22:57:25.329Z,-1.6
2023-01-27T22:59:20.355Z,-1.6
2023-01-27T23:01:18.841Z,-1.7
2023-01-27T23:03:18.789Z,-1.7
2023-01-27T23:05:22.604Z,-1.6
2023-01-27T23:07:18.674Z,-1.6
2023-01-27T23:09:22.455Z,-1.6
2023-01-27T23:11:18.764Z,-1.7
2023-01-27T23:13:18.669Z,-1.7
2023-01-27T23:15:20.587Z,-1.6
2023-01-27T23:17:18.791Z,-1.7
2023-01-27T23:19:23.254Z,-1.6
2023-01-27T23:21:29.240Z,-1.7
2023-01-27T23:23:25.748Z,-1.7
2023-01-27T23:25:23.522Z,-1.7
2023-01-27T23:27:18.806Z,-1.7
2023-01-27T23:29:24.886Z,-1.8
2023-01-27T23:31:20.307Z,-1.8
2023-01-27T23:33:18.678Z,-1.7
2023-01-27T23:35:25.804Z,-1.8
2023-01-27T23:37:21.265Z,-1.8
2023-01-27T23:39:22.048Z,-1.7
2023-01-27T23:41:18.783Z,-1.7
2023-01-27T23:43:18.652Z,-1.7
2023-01-27T23:45:22.817Z,-1.8
2023-01-27T23:47:22.710Z,-1.7
2023-01-27T23:49:20.563Z,-1.8
2023-01-27T23:51:24.632Z,-1.7
2023-01-27T23:53:25.582Z,-1.7
2023-01-27T23:55:21.477Z,-1.8
2023-01-27T23:57:21.924Z,-1.7
2023-01-27T23:59:23.770Z,-1.7
